Terminal Aerodrome Forecast
Issued by NWS Louisville, KY

Home | Current Version | Previous Version | Text Only | Print | Product List | Glossary On
Versions: 1 2 3 4 5 6 7 8 9 10 11 12 13 14
305
FTUS43 KLMK 182320
TAFBWG
TAF
KBWG 182320Z 1900/1924 VRB03KT P6SM SCT200
     FM191600 25006KT P6SM FEW045=

USA.gov is the U.S. government's official web portal to all federal, state and local government web resources and services.